Stations météo

réclame
Mon MeteoGroup
Glen Ogle, Grande-Bretagne (3148): Température de l'air & dewpoint: 20.08.2019 01:00:00 - 26.08.2019 01:00:00 (BST)Glen Ogle, Grande-Bretagne (3148): Vitesse du vent & gusts: 20.08.2019 01:00:00 - 26.08.2019 01:00:00 (BST)Glen Ogle, Grande-Bretagne (3148): Direction du vent: 20.08.2019 01:00:00 - 26.08.2019 01:00:00 (BST)
Date & Time tt [°C] td [°C] ff [km/h] ff [knt] fx [km/h] fx [knt] dd
26.08.2019 01:00:00 14,6 12,4 4 2 - - W
26.08.2019 00:00:00 16,0 11,6 18 10 - - SSE
25.08.2019 23:00:00 16,9 11,3 18 10 - - SSE
25.08.2019 22:00:00 18,0 11,1 21 11 - - SSE
25.08.2019 21:00:00 18,7 11,7 18 10 - - S
25.08.2019 20:00:00 19,9 13,8 22 12 - - S
25.08.2019 19:00:00 20,9 11,8 18 10 - - SSE
25.08.2019 18:00:00 21,5 11,8 24 13 - - S
25.08.2019 17:00:00 21,7 12,1 26 14 - - SSE
25.08.2019 16:00:00 21,3 10,8 21 11 - - SSE
25.08.2019 15:00:00 21,3 10,8 16 9 - - S
25.08.2019 14:00:00 20,4 11,2 16 9 - - SSE
25.08.2019 13:00:00 19,4 11,6 13 7 - - SSE
25.08.2019 12:00:00 19,1 11,1 13 7 - - SSE
25.08.2019 11:00:00 18,2 7,7 8 4 - - SSW
25.08.2019 10:00:00 17,7 8,4 21 11 - - ESE
25.08.2019 09:00:00 16,8 8,0 9 5 - - ESE
25.08.2019 08:00:00 16,2 8,0 8 4 - - E
25.08.2019 07:00:00 14,4 10,5 5 3 - - E
25.08.2019 06:00:00 13,9 10,0 11 6 - - ESE
25.08.2019 05:00:00 14,9 10,4 16 9 - - ESE
25.08.2019 04:00:00 15,0 11,0 13 7 - - ESE
25.08.2019 03:00:00 14,2 10,8 2 1 - - SSW
25.08.2019 02:00:00 14,5 10,0 15 8 - - SE
25.08.2019 01:00:00 15,5 10,5 13 7 - - ESE
25.08.2019 00:00:00 15,6 10,2 13 7 - - SE
24.08.2019 23:00:00 16,1 11,2 21 11 - - SE
24.08.2019 22:00:00 16,6 11,5 22 12 - - SE
24.08.2019 21:00:00 16,6 12,0 21 11 - - SE
24.08.2019 20:00:00 16,7 11,6 16 9 - - SE
24.08.2019 19:00:00 16,7 11,4 15 8 - - SSE
24.08.2019 18:00:00 16,7 11,4 21 11 - - S
24.08.2019 17:00:00 16,6 10,3 18 10 - - S
24.08.2019 16:00:00 16,1 10,4 24 13 - - SSE
24.08.2019 15:00:00 15,6 10,5 16 9 - - S
24.08.2019 14:00:00 14,5 9,7 26 14 - - S
24.08.2019 13:00:00 13,2 9,4 21 11 - - SSE
24.08.2019 12:00:00 12,4 10,1 31 17 46 25 SSE
24.08.2019 11:00:00 12,5 9,6 26 14 - - SSE
24.08.2019 10:00:00 12,1 9,4 31 17 - - S
24.08.2019 09:00:00 11,5 10,6 28 15 48 26 S
24.08.2019 08:00:00 11,4 10,7 21 11 - - S
24.08.2019 07:00:00 11,6 10,3 16 9 - - SSE
24.08.2019 06:00:00 11,7 10,2 18 10 - - SSE
24.08.2019 05:00:00 11,6 10,7 15 8 - - S
24.08.2019 04:00:00 11,8 10,9 18 10 - - S
24.08.2019 03:00:00 12,0 10,4 31 17 54 29 S
24.08.2019 02:00:00 12,2 10,2 29 16 50 27 S
24.08.2019 01:00:00 12,3 10,5 31 17 55 30 S
24.08.2019 00:00:00 12,5 11,8 37 20 57 31 S
23.08.2019 23:00:00 12,8 11,8 41 22 57 31 SSE
23.08.2019 22:00:00 13,2 12,0 41 22 57 31 S
23.08.2019 21:00:00 13,6 12,4 35 19 57 31 S
23.08.2019 20:00:00 13,8 12,4 29 16 - - S
23.08.2019 19:00:00 13,8 11,8 26 14 - - S
23.08.2019 18:00:00 13,9 11,2 26 14 - - S
23.08.2019 17:00:00 14,4 10,0 24 13 46 25 SSW
23.08.2019 16:00:00 14,2 9,6 31 17 46 25 SSW
23.08.2019 15:00:00 14,7 8,8 28 15 48 26 SSW
23.08.2019 14:00:00 14,4 9,0 35 19 48 26 SSW
23.08.2019 13:00:00 13,9 8,1 31 17 55 30 SW
23.08.2019 12:00:00 13,0 8,2 37 20 63 34 SW
23.08.2019 11:00:00 12,9 8,2 34 18 50 27 SSW
23.08.2019 10:00:00 12,6 9,3 22 12 - - SW
23.08.2019 09:00:00 12,3 10,2 28 15 50 27 SW
23.08.2019 08:00:00 12,4 10,6 34 18 52 28 SW
23.08.2019 07:00:00 12,4 10,7 31 17 59 32 SW
23.08.2019 06:00:00 12,7 10,2 37 20 67 36 SW
23.08.2019 05:00:00 12,3 9,5 39 21 59 32 WSW
23.08.2019 04:00:00 11,8 11,8 31 17 55 30 W
23.08.2019 03:00:00 13,0 12,0 37 20 57 31 WSW
23.08.2019 02:00:00 13,0 12,3 31 17 48 26 SW
23.08.2019 01:00:00 13,1 12,5 24 13 54 29 SW
23.08.2019 00:00:00 12,9 12,3 31 17 59 32 WSW
22.08.2019 23:00:00 12,4 12,2 35 19 55 30 WSW
22.08.2019 22:00:00 11,7 11,7 24 13 - - W
22.08.2019 21:00:00 11,4 11,4 28 15 - - W
22.08.2019 20:00:00 11,3 11,3 24 13 - - W
22.08.2019 19:00:00 11,4 11,1 34 18 48 26 W
22.08.2019 18:00:00 11,5 11,4 28 15 57 31 W
22.08.2019 17:00:00 12,5 11,9 26 14 59 32 SW
22.08.2019 16:00:00 12,4 11,2 41 22 65 35 S
22.08.2019 15:00:00 11,4 10,7 35 19 59 32 SSW
22.08.2019 14:00:00 10,9 9,8 39 21 65 35 S
22.08.2019 13:00:00 10,7 9,3 41 22 63 34 SSW
22.08.2019 12:00:00 12,2 5,5 34 18 63 34 SSW
22.08.2019 11:00:00 11,4 5,4 34 18 63 34 SW
22.08.2019 10:00:00 10,5 6,0 29 16 67 36 SW
22.08.2019 09:00:00 10,0 6,7 35 19 59 32 SSW
22.08.2019 08:00:00 9,5 7,4 35 19 52 28 SSW
22.08.2019 07:00:00 9,4 7,0 34 18 54 29 SSW
22.08.2019 06:00:00 9,2 7,0 26 14 48 26 S
22.08.2019 05:00:00 9,1 7,0 31 17 48 26 S
22.08.2019 04:00:00 9,2 6,7 29 16 46 25 SSW
22.08.2019 03:00:00 8,9 6,6 24 13 - - SW
22.08.2019 02:00:00 9,0 6,9 31 17 46 25 SSW
22.08.2019 01:00:00 9,1 6,1 28 15 - - SW
22.08.2019 00:00:00 9,0 6,9 29 16 48 26 W
21.08.2019 23:00:00 8,8 7,0 39 21 52 28 W
21.08.2019 22:00:00 9,5 7,0 42 23 54 29 W
21.08.2019 21:00:00 10,6 9,0 28 15 59 32 W
21.08.2019 20:00:00 10,5 10,4 44 24 80 43 S
21.08.2019 19:00:00 9,9 9,7 52 28 80 43 S
21.08.2019 18:00:00 9,7 9,6 52 28 70 38 S
21.08.2019 17:00:00 10,2 9,4 54 29 89 48 S
21.08.2019 16:00:00 10,2 9,2 61 33 83 45 S
21.08.2019 15:00:00 10,6 9,3 48 26 74 40 S
21.08.2019 14:00:00 11,0 8,3 44 24 74 40 S
21.08.2019 13:00:00 10,9 8,8 41 22 74 40 S
21.08.2019 12:00:00 10,3 9,1 41 22 67 36 S
21.08.2019 11:00:00 10,2 9,6 42 23 63 34 S
21.08.2019 10:00:00 10,0 9,7 34 18 46 25 S
21.08.2019 09:00:00 9,9 9,2 26 14 - - S
21.08.2019 08:00:00 9,6 9,2 22 12 - - S
21.08.2019 07:00:00 9,4 9,4 18 10 - - S
21.08.2019 06:00:00 9,4 9,4 15 8 - - S
21.08.2019 05:00:00 9,4 9,4 26 14 - - S
21.08.2019 04:00:00 9,3 9,3 24 13 50 27 S
21.08.2019 03:00:00 9,3 9,3 24 13 - - S
21.08.2019 02:00:00 9,5 9,3 21 11 - - SSE
21.08.2019 01:00:00 9,6 9,0 18 10 - - S
21.08.2019 00:00:00 9,3 8,9 22 12 - - S
20.08.2019 23:00:00 9,3 8,0 21 11 - - S
20.08.2019 22:00:00 9,7 7,3 22 12 - - S
20.08.2019 21:00:00 9,9 6,4 16 9 - - S
20.08.2019 20:00:00 10,8 5,1 15 8 - - W
20.08.2019 19:00:00 11,4 3,9 24 13 - - W
20.08.2019 18:00:00 11,5 3,9 29 16 - - W
20.08.2019 17:00:00 12,1 6,6 29 16 - - W
20.08.2019 16:00:00 12,0 6,9 22 12 - - W
20.08.2019 15:00:00 11,6 6,3 22 12 - - W
20.08.2019 14:00:00 10,1 6,9 15 8 - - W
20.08.2019 13:00:00 9,8 6,6 9 5 - - WSW
20.08.2019 12:00:00 10,6 5,5 16 9 - - W
20.08.2019 11:00:00 9,5 5,8 21 11 - - W
20.08.2019 10:00:00 9,0 4,0 21 11 - - W
20.08.2019 09:00:00 7,9 4,9 24 13 - - W
20.08.2019 08:00:00 7,4 6,7 22 12 - - WNW
20.08.2019 07:00:00 7,5 7,3 22 12 - - W
20.08.2019 06:00:00 7,6 7,6 21 11 - - W
20.08.2019 05:00:00 7,6 7,6 24 13 - - W
20.08.2019 04:00:00 7,9 7,9 22 12 - - W
20.08.2019 03:00:00 8,0 7,9 26 14 - - W
20.08.2019 02:00:00 8,1 8,1 28 15 - - W
20.08.2019 01:00:00 8,3 7,9 21 11 - - W

tt = Température de l'air
td = dewpoint
ff = Vitesse du vent
fx = gusts
dd = Direction du vent

stations d'obs. à proximité